Time;durP1;ratioP1;P1;durP2;ratioP2;P2;SDS_P1;SDS_P2;PMS_P1;PMS_P2;Temp;Humidity;BMP_temperature;BMP_pressure;BME280_temperature;BME280_humidity;BME280_pressure;Samples;Min_cycle;Max_cycle;Signal;HPM_P1;HPM_P2
2023/12/01 00:01:47;;;;;;;6.00;5.20;;;;;;;19.04;46.03;100430.28;5047398;28;20549;-40
2023/12/01 00:04:12;;;;;;;8.30;5.40;;;;;;;19.04;46.21;100440.44;5046710;28;20199;-40
2023/12/01 00:06:38;;;;;;;7.68;6.10;;;;;;;19.02;46.14;100435.25;5053614;28;20027;-40
2023/12/01 00:09:03;;;;;;;7.35;5.72;;;;;;;19.01;45.83;100436.34;5044390;28;20504;-40
2023/12/01 00:11:29;;;;;;;7.75;5.68;;;;;;;19.00;45.96;100436.66;5043395;28;20107;-40
2023/12/01 00:13:54;;;;;;;6.60;5.68;;;;;;;18.98;45.94;100441.63;5045066;28;20056;-40
2023/12/01 00:16:20;;;;;;;6.25;5.55;;;;;;;18.97;45.96;100453.72;5041595;28;20037;-40
2023/12/01 00:18:45;;;;;;;6.68;5.85;;;;;;;18.96;45.92;100449.31;5040261;28;20120;-40
2023/12/01 00:21:11;;;;;;;6.72;5.53;;;;;;;18.92;45.93;100449.91;5044548;28;20104;-40
2023/12/01 00:23:36;;;;;;;8.35;5.80;;;;;;;18.92;45.91;100446.38;5024366;28;20029;-40
2023/12/01 00:26:02;;;;;;;5.97;5.38;;;;;;;18.91;45.88;100450.22;5046510;28;20084;-36
2023/12/01 00:28:27;;;;;;;6.63;5.88;;;;;;;18.89;45.96;100449.66;5038497;28;20033;-36
2023/12/01 00:30:52;;;;;;;5.45;4.95;;;;;;;18.87;45.57;100457.34;5038819;28;20045;-36
2023/12/01 00:33:18;;;;;;;8.18;5.57;;;;;;;18.86;45.69;100462.03;5040935;28;20025;-36
2023/12/01 00:35:44;;;;;;;6.25;5.65;;;;;;;18.85;45.64;100473.31;5042609;28;20470;-36
2023/12/01 00:38:09;;;;;;;8.35;5.57;;;;;;;18.83;45.69;100473.59;5036233;28;20038;-36
2023/12/01 00:40:34;;;;;;;6.72;5.28;;;;;;;18.81;45.77;100472.25;5042845;28;20470;-36
2023/12/01 00:43:01;;;;;;;6.88;5.68;;;;;;;18.80;45.79;100474.19;5042381;28;20048;-37
2023/12/01 00:45:26;;;;;;;6.60;5.07;;;;;;;18.80;45.76;100476.09;5042997;28;20393;-36
2023/12/01 00:47:52;;;;;;;5.88;5.20;;;;;;;18.79;45.65;100469.00;5042850;28;20024;-36
2023/12/01 00:50:18;;;;;;;7.57;5.43;;;;;;;18.76;45.72;100476.69;5032811;28;20068;-36
2023/12/01 00:52:43;;;;;;;6.40;5.75;;;;;;;18.74;45.57;100487.16;5039400;28;20029;-36
2023/12/01 00:55:09;;;;;;;6.75;5.85;;;;;;;18.74;45.62;100495.38;5037200;28;20029;-36
2023/12/01 00:57:34;;;;;;;6.65;5.90;;;;;;;18.72;45.58;100494.03;5024881;28;20044;-36
2023/12/01 00:59:59;;;;;;;5.82;5.25;;;;;;;18.72;45.66;100499.53;5041631;28;20025;-36
2023/12/01 01:02:25;;;;;;;7.32;6.13;;;;;;;18.68;45.71;100488.31;5024262;28;20029;-36
2023/12/01 01:04:50;;;;;;;6.28;5.68;;;;;;;18.68;45.61;100490.25;5041523;28;20036;-37
2023/12/01 01:07:16;;;;;;;6.32;5.57;;;;;;;18.63;45.80;100485.63;5025032;28;20028;-39
2023/12/01 01:09:41;;;;;;;5.75;5.15;;;;;;;18.64;45.71;100494.66;5022189;28;20412;-41
2023/12/01 01:12:07;;;;;;;6.50;5.80;;;;;;;18.62;45.74;100494.16;5045381;28;20032;-40
2023/12/01 01:14:32;;;;;;;6.93;5.90;;;;;;;18.59;45.71;100504.59;5047361;28;20021;-41
2023/12/01 01:16:58;;;;;;;6.35;5.70;;;;;;;18.58;45.60;100502.94;5054113;28;20401;-40
2023/12/01 01:19:23;;;;;;;7.00;5.63;;;;;;;18.58;45.69;100510.38;5049887;28;20013;-40
2023/12/01 01:21:49;;;;;;;6.18;5.50;;;;;;;18.56;45.54;100507.09;5048573;28;20033;-40
2023/12/01 01:24:14;;;;;;;6.40;5.80;;;;;;;18.55;45.71;100505.44;5043666;28;20561;-40
2023/12/01 01:26:40;;;;;;;6.30;5.57;;;;;;;18.51;45.56;100513.44;5047141;28;20033;-40
2023/12/01 01:29:05;;;;;;;7.60;5.43;;;;;;;18.52;45.50;100508.78;5047608;28;20067;-40
2023/12/01 01:31:31;;;;;;;6.45;5.75;;;;;;;18.50;45.47;100511.00;5027230;28;20558;-40
2023/12/01 01:33:57;;;;;;;6.30;5.70;;;;;;;18.48;45.34;100515.94;5051462;28;20024;-39
2023/12/01 01:36:22;;;;;;;7.03;6.20;;;;;;;18.47;45.60;100515.13;5030179;28;20036;-40
2023/12/01 01:38:47;;;;;;;6.95;6.07;;;;;;;18.44;45.52;100522.00;5051071;28;20116;-40
2023/12/01 01:41:13;;;;;;;7.25;6.40;;;;;;;18.44;45.64;100526.66;5047402;28;20029;-41
2023/12/01 01:43:38;;;;;;;7.22;5.95;;;;;;;18.43;45.50;100536.84;5040182;28;20071;-41
2023/12/01 01:46:05;;;;;;;6.88;6.00;;;;;;;18.42;45.56;100537.13;5038557;28;20104;-41
2023/12/01 01:48:32;;;;;;;7.18;5.93;;;;;;;18.41;45.58;100543.72;5038368;28;20033;-37
2023/12/01 01:50:58;;;;;;;6.53;5.93;;;;;;;18.38;45.44;100531.41;5044080;28;20075;-37
2023/12/01 01:53:24;;;;;;;6.82;5.60;;;;;;;18.38;45.44;100542.38;5039220;28;20053;-37
2023/12/01 01:55:50;;;;;;;7.53;6.15;;;;;;;18.37;45.37;100539.91;5044662;28;20029;-40
2023/12/01 01:58:15;;;;;;;7.00;5.75;;;;;;;18.36;45.46;100539.09;5009931;28;20039;-37
2023/12/01 02:00:41;;;;;;;6.70;5.70;;;;;;;18.35;45.42;100531.16;5045631;28;20021;-37
2023/12/01 02:03:06;;;;;;;7.32;6.03;;;;;;;18.35;45.26;100539.38;5044906;28;20037;-37
2023/12/01 02:05:34;;;;;;;6.38;5.57;;;;;;;18.33;45.23;100542.41;5035330;28;20041;-37
2023/12/01 02:08:24;;;;;;;6.50;5.82;;;;;;;18.31;45.44;100544.63;5018408;28;20756;-36
2023/12/01 02:10:50;;;;;;;6.65;5.63;;;;;;;18.31;45.39;100541.03;5044402;28;20032;-36
2023/12/01 02:13:15;;;;;;;6.18;5.38;;;;;;;18.28;45.38;100540.53;5021438;28;20040;-36
2023/12/01 02:15:42;;;;;;;5.93;5.32;;;;;;;18.27;45.30;100547.13;5043311;28;20390;-36
2023/12/01 02:18:26;;;;;;;5.95;5.32;;;;;;;18.25;45.42;100540.28;5035376;28;20029;-36
2023/12/01 02:20:53;;;;;;;5.95;5.35;;;;;;;18.25;45.33;100537.53;5037414;28;20032;-36
2023/12/01 02:23:19;;;;;;;6.00;5.40;;;;;;;18.24;45.28;100539.44;5036566;28;20040;-37
2023/12/01 02:25:45;;;;;;;5.90;5.18;;;;;;;18.23;45.41;100543.31;5045127;28;20025;-37
2023/12/01 02:28:10;;;;;;;6.07;5.47;;;;;;;18.21;45.23;100545.50;5043589;28;20060;-36
2023/12/01 02:30:36;;;;;;;6.28;5.47;;;;;;;18.19;45.24;100542.22;5043446;28;20498;-37
2023/12/01 02:33:01;;;;;;;5.55;4.82;;;;;;;18.19;45.16;100550.47;5035824;28;20086;-34
2023/12/01 02:35:29;;;;;;;5.97;5.25;;;;;;;18.18;45.20;100551.56;5042835;28;20481;-36
2023/12/01 02:37:59;;;;;;;6.32;5.43;;;;;;;18.16;45.16;100551.03;5042014;28;20094;-36
2023/12/01 02:40:25;;;;;;;7.10;5.50;;;;;;;18.15;45.09;100554.03;5043954;28;20032;-37
2023/12/01 02:42:52;;;;;;;6.95;5.50;;;;;;;18.15;45.16;100556.78;5044542;28;20032;-36
2023/12/01 02:45:18;;;;;;;6.10;5.50;;;;;;;18.14;45.19;100557.91;5037218;28;20468;-36
2023/12/01 02:47:47;;;;;;;6.70;5.20;;;;;;;18.14;45.12;100557.91;5026869;28;20094;-36
2023/12/01 02:50:16;;;;;;;6.57;5.13;;;;;;;18.11;45.01;100560.13;5041494;28;20079;-36
2023/12/01 02:52:41;;;;;;;7.43;4.97;;;;;;;18.11;45.29;100562.03;5039504;28;20028;-36
2023/12/01 02:55:08;;;;;;;5.40;4.80;;;;;;;18.09;45.27;100545.84;5020319;28;20024;-36
2023/12/01 02:57:37;;;;;;;6.20;5.30;;;;;;;18.07;45.17;100550.81;5046553;28;20055;-35
2023/12/01 03:00:06;;;;;;;6.13;5.18;;;;;;;18.07;45.14;100550.00;5044070;28;20032;-35
2023/12/01 03:02:32;;;;;;;6.22;5.15;;;;;;;18.07;45.12;100555.47;5026732;28;20029;-37
2023/12/01 03:04:57;;;;;;;5.55;5.00;;;;;;;18.06;45.08;100562.06;5039091;28;20485;-37
2023/12/01 03:07:22;;;;;;;5.72;5.13;;;;;;;18.05;45.15;100553.03;5044905;28;20058;-36
2023/12/01 03:09:48;;;;;;;6.28;5.05;;;;;;;18.04;45.13;100548.63;5039349;28;20047;-37
2023/12/01 03:12:13;;;;;;;7.03;5.50;;;;;;;18.03;45.28;100554.41;5041479;28;20123;-35
2023/12/01 03:14:38;;;;;;;6.35;4.90;;;;;;;18.02;45.01;100547.28;5046461;28;20064;-40
2023/12/01 03:17:04;;;;;;;6.95;5.38;;;;;;;18.02;45.04;100552.78;5028084;28;20136;-40
2023/12/01 03:19:29;;;;;;;5.80;5.15;;;;;;;18.01;44.96;100556.63;5045251;28;20564;-40
2023/12/01 03:21:55;;;;;;;5.18;4.68;;;;;;;18.00;45.04;100549.50;5045466;28;20025;-40
2023/12/01 03:24:20;;;;;;;6.50;5.18;;;;;;;17.99;44.92;100562.38;5044950;28;20123;-40
2023/12/01 03:26:45;;;;;;;6.18;5.10;;;;;;;17.98;44.93;100571.72;5036791;28;20051;-36
2023/12/01 03:29:11;;;;;;;6.07;4.88;;;;;;;17.98;45.03;100562.66;5043035;28;20051;-36
2023/12/01 03:31:36;;;;;;;6.18;4.80;;;;;;;17.97;44.82;100561.84;5043158;28;20080;-36
2023/12/01 03:34:04;;;;;;;5.22;4.70;;;;;;;17.95;45.14;100564.88;5042094;28;20063;-36
2023/12/01 03:36:29;;;;;;;5.75;4.72;;;;;;;17.94;45.16;100568.72;5043647;28;20037;-36
2023/12/01 03:38:55;;;;;;;5.60;4.60;;;;;;;17.93;45.01;100558.81;5038425;28;20025;-35
2023/12/01 03:41:20;;;;;;;5.97;4.63;;;;;;;17.92;44.98;100565.41;5024204;28;20031;-36
2023/12/01 03:43:45;;;;;;;5.43;4.60;;;;;;;17.91;44.96;100563.75;5037837;28;20059;-40
2023/12/01 03:46:11;;;;;;;4.85;4.28;;;;;;;17.90;45.01;100573.09;5024893;28;20025;-36
2023/12/01 03:48:36;;;;;;;4.72;4.05;;;;;;;17.91;45.11;100574.72;5039934;28;20496;-36
2023/12/01 03:51:02;;;;;;;5.93;4.55;;;;;;;17.89;44.81;100582.44;5039225;28;20075;-36
2023/12/01 03:53:30;;;;;;;4.82;4.13;;;;;;;17.90;44.79;100588.72;5039951;28;20040;-36
2023/12/01 03:55:56;;;;;;;5.85;4.80;;;;;;;17.89;44.98;100592.56;5034273;28;20037;-36
2023/12/01 03:58:24;;;;;;;5.57;4.43;;;;;;;17.88;44.89;100590.91;5038057;28;20520;-40
2023/12/01 04:00:53;;;;;;;5.82;4.47;;;;;;;17.86;44.78;100593.94;5026296;28;20071;-40
2023/12/01 04:03:19;;;;;;;6.32;4.28;;;;;;;17.85;44.78;100597.78;5042897;28;20260;-40
2023/12/01 04:05:44;;;;;;;5.13;4.13;;;;;;;17.85;44.70;100595.03;5036230;28;20570;-35
2023/12/01 04:08:10;;;;;;;5.38;4.63;;;;;;;17.85;44.75;100588.75;5033273;28;20036;-36
2023/12/01 04:10:36;;;;;;;6.10;4.60;;;;;;;17.84;44.83;100592.59;5024066;28;20040;-36
2023/12/01 04:13:07;;;;;;;6.30;4.85;;;;;;;17.83;44.76;100607.41;5039260;28;20419;-35
2023/12/01 04:15:33;;;;;;;6.75;4.78;;;;;;;17.80;44.83;100606.88;5021357;28;20565;-39
2023/12/01 04:18:06;;;;;;;5.30;4.30;;;;;;;17.79;44.63;100599.75;5042078;28;20028;-41
2023/12/01 04:20:35;;;;;;;5.15;4.53;;;;;;;17.78;44.84;100605.50;5042240;28;20474;-41
2023/12/01 04:23:11;;;;;;;6.28;4.85;;;;;;;17.77;44.79;100596.47;5043386;28;20082;-41
2023/12/01 04:25:40;;;;;;;6.03;5.15;;;;;;;17.77;44.62;100604.69;5036008;28;20119;-39
2023/12/01 04:28:07;;;;;;;6.60;4.70;;;;;;;17.76;44.54;100607.72;5021962;28;20055;-40
2023/12/01 04:30:33;;;;;;;5.40;4.50;;;;;;;17.74;44.83;100613.47;5049050;28;20409;-39
2023/12/01 04:32:59;;;;;;;7.13;5.03;;;;;;;17.73;44.53;100617.31;5045066;28;20025;-40
2023/12/01 04:35:32;;;;;;;5.55;4.78;;;;;;;17.74;44.82;100620.88;5042833;28;20052;-40
2023/12/01 04:37:59;;;;;;;5.88;4.93;;;;;;;17.72;44.81;100618.41;5042533;28;20392;-40
2023/12/01 04:40:29;;;;;;;6.65;4.80;;;;;;;17.71;44.55;100622.25;5049710;28;20092;-40
2023/12/01 04:42:56;;;;;;;5.63;4.20;;;;;;;17.70;44.75;100623.34;5042477;28;20224;-40
2023/12/01 04:45:24;;;;;;;5.03;4.30;;;;;;;17.69;44.60;100631.84;5043034;28;20397;-40
2023/12/01 04:47:50;;;;;;;7.97;4.30;;;;;;;17.68;44.58;100633.75;5046241;28;20592;-39
2023/12/01 04:50:16;;;;;;;5.13;4.05;;;;;;;17.67;44.72;100643.09;5046388;28;20021;-40
2023/12/01 04:52:43;;;;;;;6.28;4.40;;;;;;;17.67;44.54;100648.59;5044510;28;20104;-40
2023/12/01 04:55:13;;;;;;;6.20;4.47;;;;;;;17.65;44.70;100646.09;5046630;28;20075;-39
2023/12/01 04:57:40;;;;;;;6.20;4.40;;;;;;;17.65;44.64;100648.84;5028885;28;20036;-35
2023/12/01 05:00:19;;;;;;;4.68;4.20;;;;;;;17.64;44.72;100649.13;5045559;28;20021;-36
2023/12/01 05:02:51;;;;;;;4.20;3.80;;;;;;;17.63;44.55;100650.22;5046503;28;20063;-39
2023/12/01 05:05:24;;;;;;;5.20;4.25;;;;;;;17.62;44.58;100651.31;5038200;28;20171;-40
2023/12/01 05:07:51;;;;;;;4.53;4.07;;;;;;;17.61;44.51;100658.72;5042097;28;20497;-40
2023/12/01 05:10:21;;;;;;;5.30;4.50;;;;;;;17.60;44.54;100650.81;5022422;28;20035;-37
2023/12/01 05:12:51;;;;;;;5.53;4.40;;;;;;;17.60;44.48;100653.53;5045445;28;20029;-36
2023/12/01 05:15:21;;;;;;;5.18;4.05;;;;;;;17.59;44.49;100655.44;5044396;28;20025;-40
2023/12/01 05:17:54;;;;;;;5.88;4.65;;;;;;;17.58;44.56;100661.22;5045306;28;20128;-40
2023/12/01 05:20:20;;;;;;;4.68;4.03;;;;;;;17.57;44.45;100665.88;5027942;28;20576;-41
2023/12/01 05:22:46;;;;;;;5.82;4.18;;;;;;;17.56;44.55;100666.13;5045569;28;20521;-40
2023/12/01 05:25:15;;;;;;;4.60;4.00;;;;;;;17.54;44.60;100663.69;5045640;28;20119;-40
2023/12/01 05:27:48;;;;;;;5.25;3.90;;;;;;;17.54;44.47;100671.09;5044146;28;20039;-36
2023/12/01 05:30:15;;;;;;;5.05;4.13;;;;;;;17.53;44.54;100669.44;5039688;28;20049;-37
2023/12/01 05:32:46;;;;;;;4.82;4.00;;;;;;;17.52;44.58;100665.88;5039294;28;20036;-36
2023/12/01 05:35:12;;;;;;;6.38;4.53;;;;;;;17.52;44.49;100657.66;5043858;28;20032;-36
2023/12/01 05:37:41;;;;;;;5.95;4.35;;;;;;;17.51;44.55;100661.50;5025582;28;20033;-36
2023/12/01 05:40:09;;;;;;;4.63;4.13;;;;;;;17.50;44.53;100668.09;5047093;28;20074;-41
2023/12/01 05:42:35;;;;;;;5.43;4.28;;;;;;;17.51;44.49;100674.38;5045785;28;20296;-40
2023/12/01 05:45:00;;;;;;;4.82;4.30;;;;;;;17.52;44.52;100679.56;5023569;28;20060;-41
2023/12/01 05:47:25;;;;;;;7.10;4.85;;;;;;;17.56;44.63;100688.06;5033176;28;20033;-41
2023/12/01 05:49:51;;;;;;;4.80;4.28;;;;;;;17.59;44.67;100684.78;5044549;28;20536;-40
2023/12/01 05:52:16;;;;;;;4.50;3.90;;;;;;;17.62;44.46;100687.78;5045568;28;20083;-41
2023/12/01 05:54:42;;;;;;;5.82;4.50;;;;;;;17.67;44.64;100686.13;5034157;28;20413;-40
2023/12/01 05:57:07;;;;;;;5.95;4.15;;;;;;;17.73;44.57;100685.84;5041168;28;20032;-40
2023/12/01 05:59:33;;;;;;;5.63;4.30;;;;;;;17.80;44.59;100688.28;5044637;28;20031;-41
2023/12/01 06:01:59;;;;;;;4.88;4.38;;;;;;;17.87;44.58;100693.47;5046351;28;20144;-41
2023/12/01 06:04:25;;;;;;;4.80;4.30;;;;;;;17.94;44.66;100694.00;5044596;28;20525;-40
2023/12/01 06:06:50;;;;;;;5.18;4.32;;;;;;;18.03;44.49;100697.81;5047590;28;20032;-41
2023/12/01 06:09:17;;;;;;;5.15;4.50;;;;;;;18.10;44.56;100698.34;5033023;28;20074;-41
2023/12/01 06:11:43;;;;;;;5.65;4.75;;;;;;;18.19;44.48;100695.03;5039291;28;20379;-41
2023/12/01 06:14:08;;;;;;;5.35;4.68;;;;;;;18.28;44.37;100694.16;5046328;28;20453;-41
2023/12/01 06:16:34;;;;;;;6.75;4.90;;;;;;;18.39;44.33;100694.94;5042148;28;20033;-41
2023/12/01 06:18:59;;;;;;;6.82;5.47;;;;;;;18.49;44.27;100696.78;5036573;28;20449;-41
2023/12/01 06:21:24;;;;;;;7.15;5.47;;;;;;;18.58;44.13;100697.81;5045429;28;20082;-41
2023/12/01 06:23:50;;;;;;;6.78;5.32;;;;;;;18.68;44.32;100702.41;5029018;28;20017;-41
2023/12/01 06:26:15;;;;;;;5.95;5.07;;;;;;;18.76;43.90;100701.00;5038560;28;20124;-41
2023/12/01 06:28:40;;;;;;;6.30;5.50;;;;;;;18.86;43.87;100706.41;5043051;28;20528;-41
2023/12/01 06:31:06;;;;;;;10.27;5.55;;;;;;;18.95;44.05;100705.84;5047319;28;20048;-41
2023/12/01 06:33:31;;;;;;;7.97;6.20;;;;;;;19.02;43.94;100709.91;5042926;28;20027;-41
2023/12/01 06:35:58;;;;;;;7.57;5.60;;;;;;;19.10;43.66;100705.72;5047037;28;20020;-41
2023/12/01 06:38:23;;;;;;;8.05;6.15;;;;;;;19.18;43.74;100701.53;5028459;28;20617;-41
2023/12/01 06:40:49;;;;;;;9.02;6.03;;;;;;;19.26;43.69;100705.59;5046095;28;20048;-41
2023/12/01 06:43:14;;;;;;;7.15;6.07;;;;;;;19.32;43.64;100704.44;5042825;28;20086;-41
2023/12/01 06:45:41;;;;;;;7.25;6.28;;;;;;;19.38;43.55;100698.59;5028876;28;20032;-41
2023/12/01 06:48:07;;;;;;;11.32;6.53;;;;;;;19.45;43.55;100706.50;5046027;28;20091;-41
2023/12/01 06:50:33;;;;;;;9.68;6.68;;;;;;;19.51;43.30;100705.34;5047182;28;20033;-41
2023/12/01 06:52:59;;;;;;;6.68;5.97;;;;;;;19.55;43.26;100705.59;5045072;28;20040;-41
2023/12/01 06:55:24;;;;;;;8.23;6.50;;;;;;;19.58;43.45;100704.19;5044244;28;20060;-41
2023/12/01 06:57:50;;;;;;;7.03;6.20;;;;;;;19.58;43.24;100709.69;5046169;28;20052;-41
2023/12/01 07:00:29;;;;;;;11.52;6.60;;;;;;;19.56;43.11;100716.28;5037187;28;20186;-41
2023/12/01 07:02:59;;;;;;;7.43;6.15;;;;;;;19.54;43.11;100718.50;5044011;28;20440;-41
2023/12/01 07:05:25;;;;;;;6.45;5.75;;;;;;;19.54;43.05;100728.69;5031092;28;20035;-42
2023/12/01 07:07:52;;;;;;;7.85;6.43;;;;;;;19.52;43.08;100731.72;5042896;28;20159;-37
2023/12/01 07:10:17;;;;;;;9.15;6.10;;;;;;;19.49;43.22;100724.03;5040085;28;20276;-36
2023/12/01 07:12:43;;;;;;;7.38;6.28;;;;;;;19.48;43.06;100727.91;5037203;28;20041;-35
2023/12/01 07:15:11;;;;;;;7.97;6.30;;;;;;;19.46;43.16;100729.31;5039523;28;20040;-36
2023/12/01 07:17:40;;;;;;;6.63;5.90;;;;;;;19.46;43.31;100723.81;5037690;28;20112;-36
2023/12/01 07:20:13;;;;;;;7.85;6.53;;;;;;;19.43;43.14;100724.41;5042656;28;20029;-37
2023/12/01 07:22:40;;;;;;;7.45;6.03;;;;;;;19.42;42.95;100736.50;5042417;28;20388;-35
2023/12/01 07:25:10;;;;;;;7.22;6.20;;;;;;;19.37;43.04;100740.94;5041448;28;20044;-35
2023/12/01 07:27:39;;;;;;;8.07;6.43;;;;;;;19.33;43.06;100733.56;5036788;28;20082;-36
2023/12/01 07:30:06;;;;;;;8.00;6.40;;;;;;;19.29;43.10;100737.97;5034339;28;20027;-36
2023/12/01 07:32:32;;;;;;;8.13;6.35;;;;;;;19.23;43.12;100745.47;5035281;28;20041;-36
2023/12/01 07:34:57;;;;;;;8.68;6.60;;;;;;;19.18;42.93;100738.06;5041554;28;20033;-36
2023/12/01 07:37:22;;;;;;;8.55;6.25;;;;;;;19.15;43.36;100748.81;5039955;28;20112;-36
2023/12/01 07:39:48;;;;;;;7.60;6.40;;;;;;;19.13;43.10;100746.34;5042250;28;20028;-36
2023/12/01 07:42:13;;;;;;;7.55;6.20;;;;;;;19.11;43.29;100740.31;5036797;28;20481;-36
2023/12/01 07:44:38;;;;;;;8.27;6.30;;;;;;;19.12;43.30;100758.44;5040350;28;20381;-36
2023/12/01 07:47:08;;;;;;;8.13;6.57;;;;;;;19.14;43.41;100755.41;5022457;28;20314;-37
2023/12/01 07:49:34;;;;;;;7.38;6.40;;;;;;;19.15;43.35;100754.31;5024539;28;20032;-37
2023/12/01 07:52:01;;;;;;;7.90;6.32;;;;;;;19.18;43.14;100740.00;5041749;28;20030;-36
2023/12/01 07:54:27;;;;;;;7.93;6.45;;;;;;;19.21;43.15;100747.66;5040247;28;20028;-36
2023/12/01 07:56:53;;;;;;;7.82;7.00;;;;;;;19.23;43.07;100753.69;5037899;28;20029;-37
2023/12/01 07:59:18;;;;;;;9.88;6.97;;;;;;;19.24;43.35;100747.91;5039128;28;20029;-36
2023/12/01 08:01:43;;;;;;;11.60;7.35;;;;;;;19.27;43.10;100751.19;5042288;28;20032;-36
2023/12/01 08:04:09;;;;;;;9.60;7.88;;;;;;;19.26;43.28;100755.03;5039236;28;20148;-36
2023/12/01 08:06:34;;;;;;;9.18;7.00;;;;;;;19.24;43.21;100755.34;5041620;28;20124;-35
2023/12/01 08:08:59;;;;;;;9.55;7.97;;;;;;;19.20;43.24;100763.34;5002939;28;20031;-35
2023/12/01 08:11:25;;;;;;;13.13;8.20;;;;;;;19.17;43.23;100760.34;5041559;28;20047;-41
2023/12/01 08:13:51;;;;;;;16.27;8.93;;;;;;;19.14;43.05;100763.66;5042047;28;20033;-41
2023/12/01 08:16:16;;;;;;;21.25;9.38;;;;;;;19.11;43.23;100765.03;5026282;28;20135;-41
2023/12/01 08:18:42;;;;;;;21.33;9.40;;;;;;;19.08;43.10;100765.63;5042873;28;20545;-41
2023/12/01 08:21:08;;;;;;;21.15;9.70;;;;;;;19.04;43.26;100765.38;5043487;28;20067;-41
2023/12/01 08:23:34;;;;;;;20.90;11.27;;;;;;;19.00;43.13;100761.53;5042956;28;20516;-41
2023/12/01 08:25:59;;;;;;;28.55;12.13;;;;;;;18.97;43.31;100767.63;5043438;28;20032;-41
2023/12/01 08:28:24;;;;;;;32.22;12.65;;;;;;;18.94;43.29;100770.13;5041988;28;20103;-40
2023/12/01 08:30:50;;;;;;;29.08;11.73;;;;;;;18.91;43.45;100766.03;5042208;28;20548;-40
2023/12/01 08:33:16;;;;;;;30.70;12.27;;;;;;;18.89;43.28;100762.69;5040354;28;20494;-41
2023/12/01 08:35:42;;;;;;;27.75;11.32;;;;;;;18.89;43.39;100765.44;5043720;28;20028;-41
2023/12/01 08:38:10;;;;;;;25.55;12.18;;;;;;;18.88;43.41;100767.38;5042659;28;20032;-40
2023/12/01 08:40:36;;;;;;;30.15;11.27;;;;;;;18.90;43.29;100775.31;5041390;28;20293;-40
2023/12/01 08:43:04;;;;;;;27.00;10.93;;;;;;;18.91;43.43;100768.75;5026433;28;20025;-40
2023/12/01 08:45:31;;;;;;;29.20;11.25;;;;;;;18.95;43.54;100771.75;5043842;28;20059;-40
2023/12/01 08:47:56;;;;;;;25.02;11.10;;;;;;;18.97;43.54;100777.78;5038313;28;20563;-36
2023/12/01 08:50:22;;;;;;;24.30;11.30;;;;;;;18.99;43.47;100773.63;5041899;28;20047;-36
2023/12/01 08:52:47;;;;;;;27.83;10.25;;;;;;;19.02;43.47;100775.81;5040881;28;20139;-36
2023/12/01 08:55:13;;;;;;;21.70;9.90;;;;;;;19.05;43.40;100780.72;5042401;28;20032;-37
2023/12/01 08:57:39;;;;;;;19.35;9.85;;;;;;;19.09;43.37;100786.47;5022682;28;20389;-37
2023/12/01 09:00:06;;;;;;;21.77;10.02;;;;;;;19.13;43.07;100782.06;5037890;28;20086;-36
2023/12/01 09:02:32;;;;;;;17.05;9.13;;;;;;;19.18;43.10;100792.22;5034931;28;20053;-37
2023/12/01 09:04:57;;;;;;;19.55;9.63;;;;;;;19.24;43.04;100785.56;5041685;28;20025;-37
2023/12/01 09:07:22;;;;;;;16.52;9.15;;;;;;;19.28;43.11;100781.13;5039923;28;20029;-36
2023/12/01 09:09:48;;;;;;;16.30;9.35;;;;;;;19.34;43.01;100787.41;5033334;28;20049;-36
2023/12/01 09:12:13;;;;;;;13.25;8.45;;;;;;;19.38;42.89;100792.03;5040595;28;20037;-36
2023/12/01 09:14:39;;;;;;;14.30;7.90;;;;;;;19.42;42.73;100796.97;5041332;28;20037;-36
2023/12/01 09:17:05;;;;;;;14.73;8.38;;;;;;;19.45;42.77;100804.63;5040716;28;20532;-36
2023/12/01 09:19:31;;;;;;;13.27;7.63;;;;;;;19.48;42.58;100804.06;5040599;28;20032;-37
2023/12/01 09:21:56;;;;;;;16.55;8.43;;;;;;;19.49;42.52;100812.00;5040853;28;20071;-37
2023/12/01 09:24:22;;;;;;;13.32;8.18;;;;;;;19.49;42.59;100812.00;5041518;28;20040;-37
2023/12/01 09:26:47;;;;;;;11.60;7.75;;;;;;;19.48;42.52;100807.59;5041368;28;20129;-36
2023/12/01 09:29:12;;;;;;;10.77;7.63;;;;;;;19.49;42.40;100809.25;5015960;28;20533;-37
2023/12/01 09:31:45;;;;;;;10.30;7.57;;;;;;;19.47;42.58;100817.00;5039558;28;20040;-35
2023/12/01 09:34:11;;;;;;;10.07;7.25;;;;;;;19.44;42.51;100812.06;5044291;28;20029;-37
2023/12/01 09:36:36;;;;;;;9.63;7.25;;;;;;;19.43;42.69;100809.59;5052000;28;20033;-37
2023/12/01 09:39:01;;;;;;;9.55;7.10;;;;;;;19.42;42.48;100821.69;5043897;28;20112;-36
2023/12/01 09:41:27;;;;;;;37.15;8.25;;;;;;;19.39;42.49;100820.34;5025534;28;20409;-36
2023/12/01 09:43:54;;;;;;;14.43;8.18;;;;;;;19.38;42.51;100814.00;5042697;28;20018;-39
2023/12/01 09:46:21;;;;;;;12.82;7.55;;;;;;;19.40;42.34;100822.78;5044717;28;20032;-39
2023/12/01 09:48:47;;;;;;;12.50;8.25;;;;;;;19.43;42.09;100824.16;5018205;28;20118;-39
2023/12/01 09:51:13;;;;;;;10.63;7.95;;;;;;;19.48;42.07;100828.78;5042930;28;20025;-40
2023/12/01 09:53:38;;;;;;;13.38;7.45;;;;;;;19.52;41.81;100833.44;5043168;28;20032;-38
2023/12/01 09:56:05;;;;;;;12.93;7.75;;;;;;;19.56;41.93;100828.19;5043230;28;20025;-43
2023/12/01 09:58:31;;;;;;;13.20;7.85;;;;;;;19.61;41.75;100836.38;5029845;28;20504;-43
2023/12/01 10:00:56;;;;;;;27.23;8.00;;;;;;;19.65;42.00;100833.88;5049147;28;20013;-41
2023/12/01 10:03:22;;;;;;;10.88;7.05;;;;;;;19.72;41.93;100837.13;5046507;28;20040;-41
2023/12/01 10:05:48;;;;;;;9.85;7.43;;;;;;;19.78;41.95;100832.38;5040385;28;20452;-42
2023/12/01 10:08:16;;;;;;;10.50;7.38;;;;;;;19.83;41.72;100837.84;5040202;28;20055;-41
2023/12/01 10:10:41;;;;;;;8.60;7.15;;;;;;;19.89;41.73;100831.22;5044619;28;20025;-41
2023/12/01 10:13:07;;;;;;;8.20;6.97;;;;;;;19.96;41.73;100837.22;5045003;28;20028;-41
2023/12/01 10:15:37;;;;;;;9.32;7.03;;;;;;;20.03;41.57;100840.41;5044279;28;20025;-41
2023/12/01 10:18:13;;;;;;;9.27;7.05;;;;;;;20.11;41.34;100838.13;5044506;28;20029;-40
2023/12/01 10:20:41;;;;;;;10.38;7.38;;;;;;;20.18;41.11;100839.44;5045208;28;20029;-41
2023/12/01 10:23:19;;;;;;;14.18;6.82;;;;;;;20.25;40.90;100836.34;5026177;28;20055;-41
2023/12/01 10:25:51;;;;;;;9.52;7.10;;;;;;;20.31;40.81;100837.13;5041488;28;20087;-40
2023/12/01 10:28:18;;;;;;;15.90;7.38;;;;;;;20.35;40.80;100838.16;5043843;28;20404;-44
2023/12/01 10:30:57;;;;;;;9.70;7.18;;;;;;;20.40;40.74;100840.03;5026396;28;20130;-43
2023/12/01 10:33:25;;;;;;;57.42;10.18;;;;;;;20.43;41.02;100840.28;5043595;28;20544;-42
2023/12/01 10:36:16;;;;;;;11.20;6.60;;;;;;;20.45;41.18;100835.31;5040040;28;20482;-40
2023/12/01 10:38:44;;;;;;;13.57;6.53;;;;;;;20.47;41.33;100841.31;5033351;28;20059;-40
2023/12/01 10:41:10;;;;;;;10.40;6.40;;;;;;;20.47;41.30;100835.00;5045329;28;20457;-40
2023/12/01 10:43:36;;;;;;;11.70;6.78;;;;;;;20.46;41.89;100830.59;5044176;28;20114;-40
2023/12/01 10:46:03;;;;;;;10.15;6.57;;;;;;;20.44;41.66;100836.41;5045953;28;20123;-40
2023/12/01 10:48:30;;;;;;;8.95;6.60;;;;;;;20.43;41.77;100840.28;5025589;28;20029;-40
2023/12/01 10:50:56;;;;;;;9.75;6.32;;;;;;;20.41;42.01;100833.41;5044230;28;20037;-40
2023/12/01 10:53:24;;;;;;;12.30;6.50;;;;;;;20.39;42.35;100828.19;5015317;28;20052;-40
2023/12/01 10:55:50;;;;;;;14.25;7.07;;;;;;;20.40;42.27;100837.28;5043081;28;20037;-38
2023/12/01 10:58:25;;;;;;;11.00;6.72;;;;;;;20.40;41.76;100831.78;5041399;28;20421;-37
2023/12/01 11:00:54;;;;;;;79.43;8.93;;;;;;;20.39;41.91;100833.69;5040956;28;20094;-37
2023/12/01 11:03:23;;;;;;;10.98;6.13;;;;;;;20.42;42.18;100835.06;5034922;28;20484;-37
2023/12/01 11:05:55;;;;;;;29.08;8.93;;;;;;;20.47;41.79;100832.25;5015152;28;20385;-37
2023/12/01 11:08:30;;;;;;;23.25;6.53;;;;;;;20.49;42.46;100830.00;5024719;28;20370;-37
2023/12/01 11:11:17;;;;;;;45.25;7.80;;;;;;;20.55;42.05;100831.59;5023591;28;20079;-39
2023/12/01 11:13:58;;;;;;;18.65;6.22;;;;;;;20.61;42.24;100835.09;5040449;28;20507;-38
2023/12/01 11:16:26;;;;;;;48.75;7.95;;;;;;;20.65;42.15;100830.66;5025868;28;20084;-41
2023/12/01 11:18:51;;;;;;;12.27;5.35;;;;;;;20.68;41.95;100830.84;5040782;28;20044;-39
2023/12/01 11:21:17;;;;;;;14.68;6.30;;;;;;;20.71;41.65;100834.16;5041436;28;20045;-38